sensor_id;sensor_type;location;lat;lon;timestamp;pressure;altitude;pressure_sealevel;temperature
48628;BMP280;34424;52.234;6.500;2023-05-10T00:04:52;62873.16;;;12.22
48628;BMP280;34424;52.234;6.500;2023-05-10T00:09:56;62840.03;;;12.15
48628;BMP280;34424;52.234;6.500;2023-05-10T00:14:58;62828.97;;;12.12
48628;BMP280;34424;52.234;6.500;2023-05-10T00:20:01;62829.03;;;12.15
48628;BMP280;34424;52.234;6.500;2023-05-10T00:25:08;62852.09;;;12.17
48628;BMP280;34424;52.234;6.500;2023-05-10T00:30:11;62806.53;;;12.13
48628;BMP280;34424;52.234;6.500;2023-05-10T00:35:14;62832.66;;;12.13
48628;BMP280;34424;52.234;6.500;2023-05-10T00:40:19;62848.34;;;12.13
48628;BMP280;34424;52.234;6.500;2023-05-10T00:45:23;62809.44;;;12.06
48628;BMP280;34424;52.234;6.500;2023-05-10T00:50:26;62864.31;;;12.06
48628;BMP280;34424;52.234;6.500;2023-05-10T00:55:32;62876.22;;;12.03
48628;BMP280;34424;52.234;6.500;2023-05-10T01:00:35;62855.31;;;12.03
48628;BMP280;34424;52.234;6.500;2023-05-10T01:05:38;62894.97;;;12.01
48628;BMP280;34424;52.234;6.500;2023-05-10T01:10:43;62899.75;;;12.03
48628;BMP280;34424;52.234;6.500;2023-05-10T01:15:46;62879.38;;;12.03
48628;BMP280;34424;52.234;6.500;2023-05-10T01:20:59;62970.91;;;12.06
48628;BMP280;34424;52.234;6.500;2023-05-10T01:26:46;62939.94;;;12.01
48628;BMP280;34424;52.234;6.500;2023-05-10T01:37:29;62950.91;;;12.02
48628;BMP280;34424;52.234;6.500;2023-05-10T01:42:37;62938.84;;;12.00
48628;BMP280;34424;52.234;6.500;2023-05-10T01:47:44;62939.41;;;12.01
48628;BMP280;34424;52.234;6.500;2023-05-10T01:52:51;62881.91;;;12.01
48628;BMP280;34424;52.234;6.500;2023-05-10T01:58:01;62902.19;;;11.97
48628;BMP280;34424;52.234;6.500;2023-05-10T02:03:08;62948.22;;;11.99
48628;BMP280;34424;52.234;6.500;2023-05-10T02:08:13;62939.78;;;11.96
48628;BMP280;34424;52.234;6.500;2023-05-10T02:13:17;62938.25;;;11.97
48628;BMP280;34424;52.234;6.500;2023-05-10T02:18:23;62978.50;;;11.98
48628;BMP280;34424;52.234;6.500;2023-05-10T02:23:28;62913.72;;;11.98
48628;BMP280;34424;52.234;6.500;2023-05-10T02:28:32;62964.91;;;11.97
48628;BMP280;34424;52.234;6.500;2023-05-10T02:33:37;62988.97;;;11.98
48628;BMP280;34424;52.234;6.500;2023-05-10T02:38:41;63038.22;;;12.03
48628;BMP280;34424;52.234;6.500;2023-05-10T02:43:45;63043.09;;;12.07
48628;BMP280;34424;52.234;6.500;2023-05-10T02:48:50;63072.56;;;12.13
48628;BMP280;34424;52.234;6.500;2023-05-10T02:53:55;63083.16;;;12.18
48628;BMP280;34424;52.234;6.500;2023-05-10T02:58:58;63011.97;;;12.15
48628;BMP280;34424;52.234;6.500;2023-05-10T03:04:03;63021.97;;;12.17
48628;BMP280;34424;52.234;6.500;2023-05-10T03:09:06;63038.81;;;12.20
48628;BMP280;34424;52.234;6.500;2023-05-10T03:14:19;63027.38;;;12.22
48628;BMP280;34424;52.234;6.500;2023-05-10T03:19:27;63061.34;;;12.22
48628;BMP280;34424;52.234;6.500;2023-05-10T03:24:34;63014.28;;;12.22
48628;BMP280;34424;52.234;6.500;2023-05-10T03:29:38;62973.56;;;12.23
48628;BMP280;34424;52.234;6.500;2023-05-10T03:34:43;63033.28;;;12.27
48628;BMP280;34424;52.234;6.500;2023-05-10T03:39:45;63048.69;;;12.35
48628;BMP280;34424;52.234;6.500;2023-05-10T03:44:48;62994.78;;;12.33
48628;BMP280;34424;52.234;6.500;2023-05-10T03:49:53;62996.41;;;12.35
48628;BMP280;34424;52.234;6.500;2023-05-10T03:54:55;62918.97;;;12.33
48628;BMP280;34424;52.234;6.500;2023-05-10T03:59:58;62921.59;;;12.33
48628;BMP280;34424;52.234;6.500;2023-05-10T04:05:02;62942.50;;;12.33
48628;BMP280;34424;52.234;6.500;2023-05-10T04:10:06;62980.34;;;12.39
48628;BMP280;34424;52.234;6.500;2023-05-10T04:15:09;62980.34;;;12.39
48628;BMP280;34424;52.234;6.500;2023-05-10T04:20:13;62909.69;;;12.37
48628;BMP280;34424;52.234;6.500;2023-05-10T04:25:16;62959.72;;;12.32
48628;BMP280;34424;52.234;6.500;2023-05-10T04:30:19;63005.94;;;12.39
48628;BMP280;34424;52.234;6.500;2023-05-10T04:35:23;62948.50;;;12.41
48628;BMP280;34424;52.234;6.500;2023-05-10T04:40:26;62934.97;;;12.43
48628;BMP280;34424;52.234;6.500;2023-05-10T04:45:28;62934.19;;;12.52
48628;BMP280;34424;52.234;6.500;2023-05-10T04:50:33;62926.97;;;12.55
48628;BMP280;34424;52.234;6.500;2023-05-10T04:55:35;62860.06;;;12.56
48628;BMP280;34424;52.234;6.500;2023-05-10T05:00:38;62871.66;;;12.60
48628;BMP280;34424;52.234;6.500;2023-05-10T05:05:43;62782.41;;;12.67
48628;BMP280;34424;52.234;6.500;2023-05-10T05:10:45;62724.66;;;12.59
48628;BMP280;34424;52.234;6.500;2023-05-10T05:15:48;62734.06;;;12.78
48628;BMP280;34424;52.234;6.500;2023-05-10T05:20:52;62681.00;;;12.90
48628;BMP280;34424;52.234;6.500;2023-05-10T05:25:55;62617.59;;;12.87
48628;BMP280;34424;52.234;6.500;2023-05-10T05:30:57;62553.47;;;12.98
48628;BMP280;34424;52.234;6.500;2023-05-10T05:36:02;62563.56;;;13.03
48628;BMP280;34424;52.234;6.500;2023-05-10T05:41:05;62568.94;;;13.10
48628;BMP280;34424;52.234;6.500;2023-05-10T05:46:07;62524.84;;;13.03
48628;BMP280;34424;52.234;6.500;2023-05-10T05:51:11;62521.50;;;12.95
48628;BMP280;34424;52.234;6.500;2023-05-10T05:56:14;62527.31;;;12.98
48628;BMP280;34424;52.234;6.500;2023-05-10T06:01:16;62522.38;;;13.11
48628;BMP280;34424;52.234;6.500;2023-05-10T06:06:21;62504.53;;;13.09
48628;BMP280;34424;52.234;6.500;2023-05-10T06:11:25;62546.22;;;13.24
48628;BMP280;34424;52.234;6.500;2023-05-10T06:16:28;62432.50;;;13.17
48628;BMP280;34424;52.234;6.500;2023-05-10T06:21:32;62518.03;;;13.51
48628;BMP280;34424;52.234;6.500;2023-05-10T06:26:34;62538.56;;;13.81
48628;BMP280;34424;52.234;6.500;2023-05-10T06:31:37;62513.50;;;14.12
48628;BMP280;34424;52.234;6.500;2023-05-10T06:36:41;62526.22;;;14.19
48628;BMP280;34424;52.234;6.500;2023-05-10T06:41:43;62552.66;;;14.29
48628;BMP280;34424;52.234;6.500;2023-05-10T06:47:04;62519.81;;;14.13
48628;BMP280;34424;52.234;6.500;2023-05-10T06:52:09;62511.22;;;14.02
48628;BMP280;34424;52.234;6.500;2023-05-10T06:57:12;62521.63;;;14.25
48628;BMP280;34424;52.234;6.500;2023-05-10T07:02:32;62507.88;;;14.19
48628;BMP280;34424;52.234;6.500;2023-05-10T07:07:36;62559.66;;;14.13
48628;BMP280;34424;52.234;6.500;2023-05-10T07:12:39;62499.28;;;14.08
48628;BMP280;34424;52.234;6.500;2023-05-10T07:17:42;62554.88;;;14.36
48628;BMP280;34424;52.234;6.500;2023-05-10T07:22:48;62504.28;;;14.23
48628;BMP280;34424;52.234;6.500;2023-05-10T07:27:50;62487.34;;;14.14
48628;BMP280;34424;52.234;6.500;2023-05-10T07:32:53;62473.53;;;13.79
48628;BMP280;34424;52.234;6.500;2023-05-10T07:37:57;62477.28;;;13.82
48628;BMP280;34424;52.234;6.500;2023-05-10T07:42:59;62458.59;;;13.92
48628;BMP280;34424;52.234;6.500;2023-05-10T07:48:02;62485.63;;;14.08
48628;BMP280;34424;52.234;6.500;2023-05-10T07:53:07;62495.53;;;14.05
48628;BMP280;34424;52.234;6.500;2023-05-10T07:58:10;62439.44;;;13.76
48628;BMP280;34424;52.234;6.500;2023-05-10T08:03:12;62480.09;;;13.93
48628;BMP280;34424;52.234;6.500;2023-05-10T08:08:16;62451.53;;;13.78
48628;BMP280;34424;52.234;6.500;2023-05-10T08:13:19;62466.88;;;13.60
48628;BMP280;34424;52.234;6.500;2023-05-10T08:18:22;62472.22;;;13.65
48628;BMP280;34424;52.234;6.500;2023-05-10T08:23:26;62471.75;;;13.95
48628;BMP280;34424;52.234;6.500;2023-05-10T08:28:28;62558.53;;;14.35
48628;BMP280;34424;52.234;6.500;2023-05-10T08:33:31;62554.56;;;14.73
48628;BMP280;34424;52.234;6.500;2023-05-10T08:38:35;62530.31;;;14.40
48628;BMP280;34424;52.234;6.500;2023-05-10T08:43:38;62573.44;;;14.44
48628;BMP280;34424;52.234;6.500;2023-05-10T08:48:43;62527.69;;;14.40
48628;BMP280;34424;52.234;6.500;2023-05-10T08:53:47;62544.44;;;14.66
48628;BMP280;34424;52.234;6.500;2023-05-10T08:58:50;62576.50;;;14.67
48628;BMP280;34424;52.234;6.500;2023-05-10T09:03:53;62600.28;;;15.04
48628;BMP280;34424;52.234;6.500;2023-05-10T09:08:57;62650.59;;;15.55
48628;BMP280;34424;52.234;6.500;2023-05-10T09:14:01;62705.25;;;16.09
48628;BMP280;34424;52.234;6.500;2023-05-10T09:19:04;62694.44;;;15.94
48628;BMP280;34424;52.234;6.500;2023-05-10T09:24:08;62626.34;;;15.49
48628;BMP280;34424;52.234;6.500;2023-05-10T09:29:11;62579.38;;;15.10
48628;BMP280;34424;52.234;6.500;2023-05-10T09:34:19;62580.06;;;14.90
48628;BMP280;34424;52.234;6.500;2023-05-10T09:39:31;62658.16;;;15.64
48628;BMP280;34424;52.234;6.500;2023-05-10T09:44:35;62744.50;;;16.29
48628;BMP280;34424;52.234;6.500;2023-05-10T09:49:38;62799.50;;;17.01
48628;BMP280;34424;52.234;6.500;2023-05-10T09:54:52;62845.09;;;17.17
48628;BMP280;34424;52.234;6.500;2023-05-10T09:59:55;62750.34;;;16.32
48628;BMP280;34424;52.234;6.500;2023-05-10T10:05:00;62648.41;;;15.50
48628;BMP280;34424;52.234;6.500;2023-05-10T10:10:07;62559.13;;;14.93
48628;BMP280;34424;52.234;6.500;2023-05-10T10:15:13;62542.97;;;14.70
48628;BMP280;34424;52.234;6.500;2023-05-10T10:20:19;62540.34;;;14.70
48628;BMP280;34424;52.234;6.500;2023-05-10T10:25:23;62631.31;;;15.34
48628;BMP280;34424;52.234;6.500;2023-05-10T10:30:37;62739.78;;;16.30
48628;BMP280;34424;52.234;6.500;2023-05-10T10:35:42;62745.47;;;16.52
48628;BMP280;34424;52.234;6.500;2023-05-10T10:40:47;62822.59;;;16.96
48628;BMP280;34424;52.234;6.500;2023-05-10T10:46:10;62760.63;;;16.47
48628;BMP280;34424;52.234;6.500;2023-05-10T10:51:14;62600.00;;;15.47
48628;BMP280;34424;52.234;6.500;2023-05-10T10:56:21;62711.00;;;15.80
48628;BMP280;34424;52.234;6.500;2023-05-10T11:01:32;62745.50;;;16.55
48628;BMP280;34424;52.234;6.500;2023-05-10T11:06:35;62931.31;;;18.24
48628;BMP280;34424;52.234;6.500;2023-05-10T11:11:51;63052.22;;;19.18
48628;BMP280;34424;52.234;6.500;2023-05-10T11:16:56;63052.59;;;19.09
48628;BMP280;34424;52.234;6.500;2023-05-10T11:22:12;63088.06;;;19.12
48628;BMP280;34424;52.234;6.500;2023-05-10T11:27:16;62918.47;;;17.82
48628;BMP280;34424;52.234;6.500;2023-05-10T11:32:19;62872.78;;;17.63
48628;BMP280;34424;52.234;6.500;2023-05-10T11:37:22;62816.41;;;17.35
48628;BMP280;34424;52.234;6.500;2023-05-10T11:42:26;62918.16;;;17.96
48628;BMP280;34424;52.234;6.500;2023-05-10T11:47:29;62925.94;;;18.19
48628;BMP280;34424;52.234;6.500;2023-05-10T11:52:35;62931.31;;;18.24
48628;BMP280;34424;52.234;6.500;2023-05-10T11:57:39;62979.88;;;18.57
48628;BMP280;34424;52.234;6.500;2023-05-10T12:02:43;63017.00;;;18.65
48628;BMP280;34424;52.234;6.500;2023-05-10T12:07:46;63047.22;;;19.04
48628;BMP280;34424;52.234;6.500;2023-05-10T12:12:52;63020.38;;;18.78
48628;BMP280;34424;52.234;6.500;2023-05-10T12:17:56;62947.75;;;18.29
48628;BMP280;34424;52.234;6.500;2023-05-10T12:22:59;62964.75;;;18.05
48628;BMP280;34424;52.234;6.500;2023-05-10T12:28:07;63020.03;;;18.58
48628;BMP280;34424;52.234;6.500;2023-05-10T12:33:12;62941.19;;;18.48
48628;BMP280;34424;52.234;6.500;2023-05-10T12:38:25;63088.59;;;19.45
48628;BMP280;34424;52.234;6.500;2023-05-10T12:43:29;63069.72;;;19.22
48628;BMP280;34424;52.234;6.500;2023-05-10T12:48:32;63057.34;;;19.08
48628;BMP280;34424;52.234;6.500;2023-05-10T12:53:35;62998.06;;;18.69
48628;BMP280;34424;52.234;6.500;2023-05-10T12:58:39;62986.91;;;18.66
48628;BMP280;34424;52.234;6.500;2023-05-10T13:03:42;62942.72;;;18.45
48628;BMP280;34424;52.234;6.500;2023-05-10T13:08:45;63055.34;;;19.16
48628;BMP280;34424;52.234;6.500;2023-05-10T13:13:49;63089.31;;;19.23
48628;BMP280;34424;52.234;6.500;2023-05-10T13:18:51;63159.72;;;19.92
48628;BMP280;34424;52.234;6.500;2023-05-10T13:23:54;63125.84;;;19.90
48628;BMP280;34424;52.234;6.500;2023-05-10T13:28:58;63118.66;;;19.71
48628;BMP280;34424;52.234;6.500;2023-05-10T13:34:01;63036.28;;;18.81
48628;BMP280;34424;52.234;6.500;2023-05-10T13:39:04;62940.38;;;18.30
48628;BMP280;34424;52.234;6.500;2023-05-10T13:44:07;62888.28;;;17.75
48628;BMP280;34424;52.234;6.500;2023-05-10T13:49:10;62850.56;;;17.60
48628;BMP280;34424;52.234;6.500;2023-05-10T13:54:12;62871.97;;;17.47
48628;BMP280;34424;52.234;6.500;2023-05-10T13:59:16;62812.28;;;17.08
48628;BMP280;34424;52.234;6.500;2023-05-10T14:04:19;62836.59;;;17.14
48628;BMP280;34424;52.234;6.500;2023-05-10T14:09:21;62829.47;;;17.27
48628;BMP280;34424;52.234;6.500;2023-05-10T14:14:25;62859.78;;;17.43
48628;BMP280;34424;52.234;6.500;2023-05-10T14:19:29;62915.31;;;17.84
48628;BMP280;34424;52.234;6.500;2023-05-10T14:24:33;62921.41;;;17.99
48628;BMP280;34424;52.234;6.500;2023-05-10T14:29:37;62953.88;;;18.18
48628;BMP280;34424;52.234;6.500;2023-05-10T14:34:40;62876.09;;;17.71
48628;BMP280;34424;52.234;6.500;2023-05-10T14:39:42;62899.31;;;17.73
48628;BMP280;34424;52.234;6.500;2023-05-10T14:44:46;62873.84;;;17.64
48628;BMP280;34424;52.234;6.500;2023-05-10T14:49:48;62882.34;;;17.67
48628;BMP280;34424;52.234;6.500;2023-05-10T14:54:51;62864.66;;;17.81
48628;BMP280;34424;52.234;6.500;2023-05-10T14:59:55;62885.22;;;17.80
48628;BMP280;34424;52.234;6.500;2023-05-10T15:04:58;62917.06;;;17.93
48628;BMP280;34424;52.234;6.500;2023-05-10T15:10:01;62906.44;;;17.88
48628;BMP280;34424;52.234;6.500;2023-05-10T15:15:06;62921.06;;;18.12
48628;BMP280;34424;52.234;6.500;2023-05-10T15:20:09;63014.13;;;18.82
48628;BMP280;34424;52.234;6.500;2023-05-10T15:25:11;63020.09;;;18.93
48628;BMP280;34424;52.234;6.500;2023-05-10T15:30:15;63014.78;;;18.60
48628;BMP280;34424;52.234;6.500;2023-05-10T15:35:19;62973.03;;;18.58
48628;BMP280;34424;52.234;6.500;2023-05-10T15:40:21;62997.59;;;18.74
48628;BMP280;34424;52.234;6.500;2023-05-10T15:45:25;62980.56;;;18.35
48628;BMP280;34424;52.234;6.500;2023-05-10T15:50:27;62943.53;;;18.30
48628;BMP280;34424;52.234;6.500;2023-05-10T15:55:30;62960.56;;;18.39
48628;BMP280;34424;52.234;6.500;2023-05-10T16:00:34;62959.13;;;18.15
48628;BMP280;34424;52.234;6.500;2023-05-10T16:05:36;63004.72;;;18.58
48628;BMP280;34424;52.234;6.500;2023-05-10T16:10:39;63057.50;;;19.18
48628;BMP280;34424;52.234;6.500;2023-05-10T16:15:43;63085.59;;;19.55
48628;BMP280;34424;52.234;6.500;2023-05-10T16:20:46;63023.44;;;18.71
48628;BMP280;34424;52.234;6.500;2023-05-10T16:25:50;62916.13;;;17.99
48628;BMP280;34424;52.234;6.500;2023-05-10T16:30:54;62810.34;;;17.19
48628;BMP280;34424;52.234;6.500;2023-05-10T16:35:57;62755.81;;;16.42
48628;BMP280;34424;52.234;6.500;2023-05-10T16:41:00;62754.31;;;16.18
48628;BMP280;34424;52.234;6.500;2023-05-10T16:46:09;62704.06;;;16.03
48628;BMP280;34424;52.234;6.500;2023-05-10T16:51:12;62703.91;;;15.93
48628;BMP280;34424;52.234;6.500;2023-05-10T16:56:15;62660.44;;;15.74
48628;BMP280;34424;52.234;6.500;2023-05-10T17:01:20;62676.69;;;15.72
48628;BMP280;34424;52.234;6.500;2023-05-10T17:06:26;62651.84;;;15.63
48628;BMP280;34424;52.234;6.500;2023-05-10T17:11:29;62652.41;;;15.67
48628;BMP280;34424;52.234;6.500;2023-05-10T17:16:33;62643.34;;;15.60
48628;BMP280;34424;52.234;6.500;2023-05-10T17:21:36;62617.72;;;15.66
48628;BMP280;34424;52.234;6.500;2023-05-10T17:26:38;62684.53;;;15.70
48628;BMP280;34424;52.234;6.500;2023-05-10T17:31:42;62687.78;;;15.75
48628;BMP280;34424;52.234;6.500;2023-05-10T17:36:45;62675.38;;;15.86
48628;BMP280;34424;52.234;6.500;2023-05-10T17:41:47;62682.50;;;15.73
48628;BMP280;34424;52.234;6.500;2023-05-10T17:46:51;62648.63;;;15.60
48628;BMP280;34424;52.234;6.500;2023-05-10T17:51:54;62666.72;;;15.73
48628;BMP280;34424;52.234;6.500;2023-05-10T17:56:56;62627.66;;;15.63
48628;BMP280;34424;52.234;6.500;2023-05-10T18:02:02;62642.88;;;15.62
48628;BMP280;34424;52.234;6.500;2023-05-10T18:07:04;62635.47;;;15.60
48628;BMP280;34424;52.234;6.500;2023-05-10T18:12:08;62606.22;;;15.40
48628;BMP280;34424;52.234;6.500;2023-05-10T18:17:11;62630.88;;;15.39
48628;BMP280;34424;52.234;6.500;2023-05-10T18:22:14;62625.78;;;15.19
48628;BMP280;34424;52.234;6.500;2023-05-10T18:27:16;62574.53;;;15.02
48628;BMP280;34424;52.234;6.500;2023-05-10T18:32:21;62617.84;;;14.89
48628;BMP280;34424;52.234;6.500;2023-05-10T18:37:24;62563.47;;;14.72
48628;BMP280;34424;52.234;6.500;2023-05-10T18:42:26;62521.53;;;14.47
48628;BMP280;34424;52.234;6.500;2023-05-10T18:47:30;62542.47;;;14.45
48628;BMP280;34424;52.234;6.500;2023-05-10T18:52:33;62512.19;;;14.26
48628;BMP280;34424;52.234;6.500;2023-05-10T18:57:37;62465.28;;;14.13
48628;BMP280;34424;52.234;6.500;2023-05-10T19:02:43;62479.81;;;14.05
48628;BMP280;34424;52.234;6.500;2023-05-10T19:07:45;62506.84;;;13.93
48628;BMP280;34424;52.234;6.500;2023-05-10T19:12:48;62468.34;;;13.81
48628;BMP280;34424;52.234;6.500;2023-05-10T19:17:52;62462.84;;;13.69
48628;BMP280;34424;52.234;6.500;2023-05-10T19:22:54;62442.19;;;13.57
48628;BMP280;34424;52.234;6.500;2023-05-10T19:28:10;62428.25;;;13.41
48628;BMP280;34424;52.234;6.500;2023-05-10T19:33:14;62405.53;;;13.29
48628;BMP280;34424;52.234;6.500;2023-05-10T19:38:18;62402.16;;;13.18
48628;BMP280;34424;52.234;6.500;2023-05-10T19:43:21;62372.09;;;13.07
48628;BMP280;34424;52.234;6.500;2023-05-10T19:48:25;62385.59;;;13.03
48628;BMP280;34424;52.234;6.500;2023-05-10T19:53:28;62394.00;;;13.03
48628;BMP280;34424;52.234;6.500;2023-05-10T19:58:31;62406.06;;;13.05
48628;BMP280;34424;52.234;6.500;2023-05-10T20:03:35;62389.81;;;13.04
48628;BMP280;34424;52.234;6.500;2023-05-10T20:08:38;62389.69;;;12.99
48628;BMP280;34424;52.234;6.500;2023-05-10T20:13:40;62389.59;;;12.94
48628;BMP280;34424;52.234;6.500;2023-05-10T20:18:44;62341.84;;;12.86
48628;BMP280;34424;52.234;6.500;2023-05-10T20:23:47;62316.06;;;12.79
48628;BMP280;34424;52.234;6.500;2023-05-10T20:28:49;62358.75;;;12.70
48628;BMP280;34424;52.234;6.500;2023-05-10T20:33:53;62312.06;;;12.63
48628;BMP280;34424;52.234;6.500;2023-05-10T20:38:56;62325.00;;;12.55
48628;BMP280;34424;52.234;6.500;2023-05-10T20:43:58;62353.59;;;12.47
48628;BMP280;34424;52.234;6.500;2023-05-10T20:49:02;62316.84;;;12.40
48628;BMP280;34424;52.234;6.500;2023-05-10T20:54:05;62315.09;;;12.31
48628;BMP280;34424;52.234;6.500;2023-05-10T20:59:08;62300.84;;;12.24
48628;BMP280;34424;52.234;6.500;2023-05-10T21:04:14;62296.63;;;12.23
48628;BMP280;34424;52.234;6.500;2023-05-10T21:09:17;62287.56;;;12.14
48628;BMP280;34424;52.234;6.500;2023-05-10T21:14:19;62302.53;;;12.06
48628;BMP280;34424;52.234;6.500;2023-05-10T21:19:23;62285.63;;;11.97
48628;BMP280;34424;52.234;6.500;2023-05-10T21:24:26;62279.44;;;12.02
48628;BMP280;34424;52.234;6.500;2023-05-10T21:29:28;62282.19;;;12.07
48628;BMP280;34424;52.234;6.500;2023-05-10T21:34:32;62294.28;;;12.11
48628;BMP280;34424;52.234;6.500;2023-05-10T21:39:34;62310.00;;;12.13
48628;BMP280;34424;52.234;6.500;2023-05-10T21:44:37;62290.72;;;12.15
48628;BMP280;34424;52.234;6.500;2023-05-10T21:49:41;62301.78;;;12.20
48628;BMP280;34424;52.234;6.500;2023-05-10T21:54:43;62339.50;;;12.24
48628;BMP280;34424;52.234;6.500;2023-05-10T21:59:46;62334.91;;;12.29
48628;BMP280;34424;52.234;6.500;2023-05-10T22:04:50;62353.44;;;12.40
48628;BMP280;34424;52.234;6.500;2023-05-10T22:09:52;62336.78;;;12.44
48628;BMP280;34424;52.234;6.500;2023-05-10T22:14:55;62320.09;;;12.45
48628;BMP280;34424;52.234;6.500;2023-05-10T22:20:13;62334.66;;;12.42
48628;BMP280;34424;52.234;6.500;2023-05-10T22:25:16;62329.44;;;12.42
48628;BMP280;34424;52.234;6.500;2023-05-10T22:30:18;62353.47;;;12.42
48628;BMP280;34424;52.234;6.500;2023-05-10T22:35:22;62362.88;;;12.41
48628;BMP280;34424;52.234;6.500;2023-05-10T22:40:25;62339.28;;;12.39
48628;BMP280;34424;52.234;6.500;2023-05-10T22:45:27;62318.88;;;12.37
48628;BMP280;34424;52.234;6.500;2023-05-10T22:50:31;62342.88;;;12.35
48628;BMP280;34424;52.234;6.500;2023-05-10T22:55:34;62360.63;;;12.34
48628;BMP280;34424;52.234;6.500;2023-05-10T23:00:37;62344.47;;;12.36
48628;BMP280;34424;52.234;6.500;2023-05-10T23:05:41;62371.16;;;12.37
48628;BMP280;34424;52.234;6.500;2023-05-10T23:10:43;62337.69;;;12.37
48628;BMP280;34424;52.234;6.500;2023-05-10T23:15:46;62344.47;;;12.36
48628;BMP280;34424;52.234;6.500;2023-05-10T23:20:50;62334.97;;;12.32
48628;BMP280;34424;52.234;6.500;2023-05-10T23:25:53;62336.41;;;12.26
48628;BMP280;34424;52.234;6.500;2023-05-10T23:30:56;62330.06;;;12.22
48628;BMP280;34424;52.234;6.500;2023-05-10T23:36:00;62329.53;;;12.22
48628;BMP280;34424;52.234;6.500;2023-05-10T23:41:03;62312.78;;;12.21
48628;BMP280;34424;52.234;6.500;2023-05-10T23:46:05;62328.84;;;12.14
48628;BMP280;34424;52.234;6.500;2023-05-10T23:51:09;62311.03;;;12.12
48628;BMP280;34424;52.234;6.500;2023-05-10T23:56:12;62294.69;;;12.06
